Ora Direzione Vento Velocita' Vento Media Vento Raffica Max. Temperatura Wind Chill Pioggia Pressione
22:49:11.049 °(NE)13.9 Kts13.9 Kts27.7 Kts4.4 °C-5.8 °C0.0 mm1007.2 Hpa
22:28:27.047 °(NE)10.4 Kts10.4 Kts27.7 Kts4.3 °C-3.7 °C0.0 mm1007.0 Hpa
22:07:45.036 °(NE)13.0 Kts15.6 Kts27.7 Kts4.1 °C-7.3 °C0.0 mm1007.4 Hpa
21:49:09.027 °(NNE)8.7 Kts18.2 Kts27.7 Kts3.9 °C-8.8 °C0.0 mm1007.1 Hpa
21:28:25.011 °(N)13.9 Kts10.4 Kts27.7 Kts3.9 °C-4.1 °C0.0 mm1007.2 Hpa
21:07:45.012 °(NNE)15.6 Kts13.0 Kts27.7 Kts3.7 °C-6.2 °C0.0 mm1007.5 Hpa
20:49:08.043 °(NE)20.9 Kts18.2 Kts27.7 Kts4.4 °C-8.2 °C0.0 mm1007.7 Hpa
20:28:25.049 °(NE)15.6 Kts16.5 Kts27.7 Kts4.2 °C-7.6 °C0.0 mm1007.0 Hpa
20:07:43.059 °(ENE)14.8 Kts14.8 Kts27.7 Kts3.7 °C-7.3 °C0.0 mm1007.0 Hpa
19:49:06.054 °(NE)11.3 Kts13.9 Kts27.7 Kts3.2 °C-7.4 °C0.0 mm1006.9 Hpa
19:28:26.065 °(ENE)4.3 Kts5.2 Kts27.7 Kts2.6 °C-0.2 °C0.0 mm1007.0 Hpa
19:07:45.0359 °(N)10.4 Kts9.6 Kts27.7 Kts2.3 °C-5.7 °C0.0 mm1007.3 Hpa
18:49:07.060 °(ENE)13.0 Kts13.0 Kts27.7 Kts2.6 °C-7.7 °C0.0 mm1007.5 Hpa
18:28:24.034 °(NE)16.5 Kts14.8 Kts27.7 Kts3.5 °C-7.6 °C0.0 mm1007.4 Hpa
18:07:39.025 °(NNE)13.9 Kts13.0 Kts27.7 Kts4.4 °C-5.3 °C0.0 mm1007.2 Hpa
17:49:01.058 °(ENE)13.9 Kts13.0 Kts27.7 Kts4.5 °C-5.2 °C0.0 mm1007.2 Hpa
17:28:18.065 °(ENE)9.6 Kts11.3 Kts27.7 Kts4.7 °C-3.7 °C0.0 mm1006.9 Hpa
17:07:28.076 °(ENE)13.0 Kts7.8 Kts27.7 Kts4.1 °C-1.8 °C0.0 mm1007.0 Hpa
16:48:48.027 °(NNE)10.4 Kts9.6 Kts27.7 Kts4.2 °C-3.2 °C0.0 mm1007.1 Hpa
16:28:00.0319 °(NW)13.9 Kts13.9 Kts27.7 Kts3.3 °C-7.3 °C0.0 mm1006.8 Hpa